sensor_id;sensor_type;location;lat;lon;timestamp;pressure;altitude;pressure_sealevel;temperature;humidity
31096;BME280;17749;51.962;8.560;2023-06-22T05:02:39;100268.38;;;19.81;100.00
31096;BME280;17749;51.962;8.560;2023-06-22T05:05:08;100265.94;;;19.89;100.00
31096;BME280;17749;51.962;8.560;2023-06-22T05:07:52;100268.69;;;20.00;100.00
31096;BME280;17749;51.962;8.560;2023-06-22T05:10:27;100267.97;;;20.09;100.00
31096;BME280;17749;51.962;8.560;2023-06-22T05:13:03;100268.97;;;20.20;100.00
31096;BME280;17749;51.962;8.560;2023-06-22T05:15:33;100272.56;;;20.31;100.00
31096;BME280;17749;51.962;8.560;2023-06-22T05:18:21;100266.22;;;20.44;100.00
31096;BME280;17749;51.962;8.560;2023-06-22T05:20:55;100260.91;;;20.53;100.00
31096;BME280;17749;51.962;8.560;2023-06-22T05:23:35;100263.91;;;20.62;100.00
31096;BME280;17749;51.962;8.560;2023-06-22T05:26:07;100274.00;;;20.71;100.00
31096;BME280;17749;51.962;8.560;2023-06-22T05:28:47;100265.63;;;20.85;100.00
31096;BME280;17749;51.962;8.560;2023-06-22T05:31:15;100265.50;;;20.98;100.00
31096;BME280;17749;51.962;8.560;2023-06-22T05:33:54;100264.16;;;21.15;100.00
31096;BME280;17749;51.962;8.560;2023-06-22T05:36:24;100274.69;;;21.29;100.00
31096;BME280;17749;51.962;8.560;2023-06-22T05:38:53;100267.19;;;21.44;100.00
31096;BME280;17749;51.962;8.560;2023-06-22T05:41:20;100261.88;;;21.54;100.00
31096;BME280;17749;51.962;8.560;2023-06-22T05:43:48;100267.09;;;21.66;100.00
31096;BME280;17749;51.962;8.560;2023-06-22T05:46:17;100268.47;;;21.72;100.00
31096;BME280;17749;51.962;8.560;2023-06-22T05:48:44;100262.25;;;21.81;100.00
31096;BME280;17749;51.962;8.560;2023-06-22T05:51:11;100265.06;;;21.91;100.00
31096;BME280;17749;51.962;8.560;2023-06-22T05:53:38;100263.13;;;22.03;100.00
31096;BME280;17749;51.962;8.560;2023-06-22T05:56:05;100274.44;;;22.19;100.00
31096;BME280;17749;51.962;8.560;2023-06-22T05:58:36;100279.03;;;22.28;100.00
31096;BME280;17749;51.962;8.560;2023-06-22T06:01:03;100277.81;;;22.33;100.00
31096;BME280;17749;51.962;8.560;2023-06-22T06:03:30;100271.72;;;22.40;100.00
31096;BME280;17749;51.962;8.560;2023-06-22T06:05:57;100266.66;;;22.57;100.00
31096;BME280;17749;51.962;8.560;2023-06-22T06:08:26;100274.59;;;22.69;100.00
31096;BME280;17749;51.962;8.560;2023-06-22T06:10:53;100279.47;;;22.75;100.00
31096;BME280;17749;51.962;8.560;2023-06-22T06:13:21;100285.63;;;22.78;100.00
31096;BME280;17749;51.962;8.560;2023-06-22T06:15:48;100290.50;;;22.84;100.00
31096;BME280;17749;51.962;8.560;2023-06-22T06:18:18;100284.25;;;22.93;100.00
31096;BME280;17749;51.962;8.560;2023-06-22T06:20:45;100280.47;;;23.05;100.00
31096;BME280;17749;51.962;8.560;2023-06-22T06:23:12;100279.50;;;23.16;100.00
31096;BME280;17749;51.962;8.560;2023-06-22T06:25:39;100280.81;;;23.22;100.00
31096;BME280;17749;51.962;8.560;2023-06-22T06:28:06;100279.53;;;23.26;100.00
31096;BME280;17749;51.962;8.560;2023-06-22T06:30:33;100278.41;;;23.28;100.00
31096;BME280;17749;51.962;8.560;2023-06-22T06:33:00;100280.13;;;23.29;100.00
31096;BME280;17749;51.962;8.560;2023-06-22T06:35:27;100285.81;;;23.26;100.00
31096;BME280;17749;51.962;8.560;2023-06-22T06:37:55;100286.69;;;23.27;100.00
31096;BME280;17749;51.962;8.560;2023-06-22T06:40:22;100285.13;;;23.34;100.00
31096;BME280;17749;51.962;8.560;2023-06-22T06:42:49;100281.59;;;23.43;100.00
31096;BME280;17749;51.962;8.560;2023-06-22T06:45:20;100282.19;;;23.56;100.00
31096;BME280;17749;51.962;8.560;2023-06-22T06:47:51;100274.47;;;23.61;100.00
31096;BME280;17749;51.962;8.560;2023-06-22T06:50:18;100271.88;;;23.70;100.00
31096;BME280;17749;51.962;8.560;2023-06-22T06:52:46;100282.22;;;23.76;100.00
31096;BME280;17749;51.962;8.560;2023-06-22T06:55:13;100279.22;;;23.79;100.00
31096;BME280;17749;51.962;8.560;2023-06-22T06:57:41;100277.63;;;23.86;100.00
31096;BME280;17749;51.962;8.560;2023-06-22T07:00:11;100283.69;;;23.90;100.00
31096;BME280;17749;51.962;8.560;2023-06-22T07:02:52;100277.09;;;23.92;100.00
31096;BME280;17749;51.962;8.560;2023-06-22T07:05:19;100282.22;;;23.95;100.00
31096;BME280;17749;51.962;8.560;2023-06-22T07:07:46;100282.06;;;24.06;100.00
31096;BME280;17749;51.962;8.560;2023-06-22T07:10:13;100289.38;;;24.16;100.00
31096;BME280;17749;51.962;8.560;2023-06-22T07:12:42;100284.94;;;24.15;100.00
31096;BME280;17749;51.962;8.560;2023-06-22T07:15:09;100276.63;;;24.16;100.00
31096;BME280;17749;51.962;8.560;2023-06-22T07:17:37;100278.78;;;24.13;100.00
31096;BME280;17749;51.962;8.560;2023-06-22T07:20:05;100277.66;;;24.05;100.00
31096;BME280;17749;51.962;8.560;2023-06-22T07:22:40;100279.34;;;24.06;100.00
31096;BME280;17749;51.962;8.560;2023-06-22T07:25:08;100279.78;;;24.12;100.00
31096;BME280;17749;51.962;8.560;2023-06-22T07:28:02;100272.78;;;24.19;100.00
31096;BME280;17749;51.962;8.560;2023-06-22T07:30:31;100272.59;;;24.30;100.00
31096;BME280;17749;51.962;8.560;2023-06-22T07:32:59;100276.75;;;24.34;100.00
31096;BME280;17749;51.962;8.560;2023-06-22T07:35:31;100268.28;;;24.37;100.00
31096;BME280;17749;51.962;8.560;2023-06-22T07:37:58;100266.00;;;24.42;100.00
31096;BME280;17749;51.962;8.560;2023-06-22T07:40:28;100267.88;;;24.42;100.00
31096;BME280;17749;51.962;8.560;2023-06-22T07:42:56;100270.41;;;24.43;100.00
31096;BME280;17749;51.962;8.560;2023-06-22T07:45:23;100271.44;;;24.42;100.00
31096;BME280;17749;51.962;8.560;2023-06-22T07:47:50;100271.28;;;24.44;100.00
31096;BME280;17749;51.962;8.560;2023-06-22T07:50:17;100270.16;;;24.46;100.00
31096;BME280;17749;51.962;8.560;2023-06-22T07:52:44;100257.25;;;24.48;100.00
31096;BME280;17749;51.962;8.560;2023-06-22T07:55:11;100252.53;;;24.51;100.00
31096;BME280;17749;51.962;8.560;2023-06-22T07:57:38;100252.94;;;24.56;100.00
31096;BME280;17749;51.962;8.560;2023-06-22T08:00:06;100264.97;;;24.63;100.00
31096;BME280;17749;51.962;8.560;2023-06-22T08:02:45;100258.06;;;24.68;100.00
31096;BME280;17749;51.962;8.560;2023-06-22T08:05:14;100257.91;;;24.70;100.00
31096;BME280;17749;51.962;8.560;2023-06-22T08:08:01;100256.34;;;24.67;100.00
31096;BME280;17749;51.962;8.560;2023-06-22T08:10:28;100272.94;;;24.74;100.00
31096;BME280;17749;51.962;8.560;2023-06-22T08:12:55;100260.47;;;24.81;100.00
31096;BME280;17749;51.962;8.560;2023-06-22T08:15:22;100259.97;;;24.86;100.00
31096;BME280;17749;51.962;8.560;2023-06-22T08:17:54;100257.38;;;24.94;100.00
31096;BME280;17749;51.962;8.560;2023-06-22T08:20:22;100271.16;;;24.92;100.00
31096;BME280;17749;51.962;8.560;2023-06-22T08:22:49;100261.06;;;25.03;100.00
31096;BME280;17749;51.962;8.560;2023-06-22T08:25:16;100253.00;;;25.11;100.00
31096;BME280;17749;51.962;8.560;2023-06-22T08:27:47;100249.25;;;25.12;100.00
31096;BME280;17749;51.962;8.560;2023-06-22T08:30:17;100249.09;;;25.13;100.00
31096;BME280;17749;51.962;8.560;2023-06-22T08:32:47;100225.44;;;25.14;100.00
31096;BME280;17749;51.962;8.560;2023-06-22T08:35:15;100219.88;;;25.33;100.00
31096;BME280;17749;51.962;8.560;2023-06-22T08:37:42;100211.59;;;25.71;100.00
31096;BME280;17749;51.962;8.560;2023-06-22T08:40:10;100208.25;;;26.21;100.00
31096;BME280;17749;51.962;8.560;2023-06-22T08:42:42;100217.44;;;26.46;100.00
31096;BME280;17749;51.962;8.560;2023-06-22T08:45:10;100225.72;;;26.28;100.00
31096;BME280;17749;51.962;8.560;2023-06-22T08:47:36;100223.59;;;26.22;100.00
31096;BME280;17749;51.962;8.560;2023-06-22T08:50:05;100232.63;;;26.22;100.00
31096;BME280;17749;51.962;8.560;2023-06-22T08:52:32;100226.13;;;26.15;100.00
31096;BME280;17749;51.962;8.560;2023-06-22T08:54:59;100232.19;;;26.09;100.00
31096;BME280;17749;51.962;8.560;2023-06-22T08:57:29;100222.25;;;26.00;100.00
31096;BME280;17749;51.962;8.560;2023-06-22T08:59:57;100220.53;;;25.99;100.00
31096;BME280;17749;51.962;8.560;2023-06-22T09:02:27;100213.38;;;25.98;100.00
31096;BME280;17749;51.962;8.560;2023-06-22T09:04:58;100198.41;;;26.02;100.00
31096;BME280;17749;51.962;8.560;2023-06-22T09:07:26;100191.88;;;26.21;100.00
31096;BME280;17749;51.962;8.560;2023-06-22T09:09:53;100186.09;;;26.24;100.00
31096;BME280;17749;51.962;8.560;2023-06-22T09:12:20;100194.22;;;26.16;100.00
31096;BME280;17749;51.962;8.560;2023-06-22T09:14:51;100193.19;;;26.17;100.00
31096;BME280;17749;51.962;8.560;2023-06-22T09:17:18;100186.97;;;26.07;100.00
31096;BME280;17749;51.962;8.560;2023-06-22T09:19:46;100191.06;;;26.02;100.00
31096;BME280;17749;51.962;8.560;2023-06-22T09:22:14;100189.88;;;26.05;100.00
31096;BME280;17749;51.962;8.560;2023-06-22T09:24:41;100194.69;;;26.11;100.00
31096;BME280;17749;51.962;8.560;2023-06-22T09:27:08;100190.69;;;26.23;100.00
31096;BME280;17749;51.962;8.560;2023-06-22T09:29:35;100191.78;;;26.31;100.00
31096;BME280;17749;51.962;8.560;2023-06-22T09:32:02;100192.44;;;26.33;100.00
31096;BME280;17749;51.962;8.560;2023-06-22T09:34:30;100193.47;;;26.32;100.00
31096;BME280;17749;51.962;8.560;2023-06-22T09:36:58;100192.06;;;26.28;100.00
31096;BME280;17749;51.962;8.560;2023-06-22T09:39:27;100183.97;;;26.36;100.00
31096;BME280;17749;51.962;8.560;2023-06-22T09:41:54;100190.09;;;26.38;100.00
31096;BME280;17749;51.962;8.560;2023-06-22T09:44:21;100197.97;;;26.41;100.00
31096;BME280;17749;51.962;8.560;2023-06-22T09:46:48;100182.94;;;26.37;100.00
31096;BME280;17749;51.962;8.560;2023-06-22T09:49:15;100180.91;;;26.39;100.00
31096;BME280;17749;51.962;8.560;2023-06-22T09:51:43;100176.19;;;26.49;100.00
31096;BME280;17749;51.962;8.560;2023-06-22T09:54:10;100165.00;;;26.60;100.00
31096;BME280;17749;51.962;8.560;2023-06-22T09:56:39;100152.81;;;26.89;100.00
31096;BME280;17749;51.962;8.560;2023-06-22T09:59:06;100148.13;;;27.24;100.00
31096;BME280;17749;51.962;8.560;2023-06-22T10:01:45;100157.94;;;27.59;100.00
31096;BME280;17749;51.962;8.560;2023-06-22T10:04:12;100152.97;;;27.87;100.00
31096;BME280;17749;51.962;8.560;2023-06-22T10:06:39;100161.88;;;27.81;100.00
31096;BME280;17749;51.962;8.560;2023-06-22T10:09:07;100159.81;;;27.75;100.00
31096;BME280;17749;51.962;8.560;2023-06-22T10:11:35;100164.59;;;27.81;100.00
31096;BME280;17749;51.962;8.560;2023-06-22T10:14:02;100154.34;;;27.75;100.00
31096;BME280;17749;51.962;8.560;2023-06-22T10:16:31;100152.94;;;27.79;100.00
31096;BME280;17749;51.962;8.560;2023-06-22T10:18:59;100158.13;;;27.90;100.00
31096;BME280;17749;51.962;8.560;2023-06-22T10:21:26;100156.19;;;28.15;100.00
31096;BME280;17749;51.962;8.560;2023-06-22T10:23:55;100153.22;;;28.33;100.00
31096;BME280;17749;51.962;8.560;2023-06-22T10:26:22;100156.63;;;28.52;100.00
31096;BME280;17749;51.962;8.560;2023-06-22T10:28:50;100149.38;;;28.67;100.00
31096;BME280;17749;51.962;8.560;2023-06-22T10:31:33;100157.41;;;29.08;100.00
31096;BME280;17749;51.962;8.560;2023-06-22T10:34:00;100150.03;;;29.40;100.00
31096;BME280;17749;51.962;8.560;2023-06-22T10:36:27;100152.91;;;29.69;100.00
31096;BME280;17749;51.962;8.560;2023-06-22T10:38:54;100143.84;;;29.84;100.00
31096;BME280;17749;51.962;8.560;2023-06-22T10:41:22;100135.25;;;29.87;100.00
31096;BME280;17749;51.962;8.560;2023-06-22T10:43:49;100128.06;;;30.15;100.00
31096;BME280;17749;51.962;8.560;2023-06-22T10:46:16;100123.38;;;30.24;100.00
31096;BME280;17749;51.962;8.560;2023-06-22T10:48:43;100115.38;;;30.14;100.00
31096;BME280;17749;51.962;8.560;2023-06-22T10:51:10;100115.84;;;30.18;100.00
31096;BME280;17749;51.962;8.560;2023-06-22T10:53:37;100102.72;;;30.13;100.00
31096;BME280;17749;51.962;8.560;2023-06-22T10:56:05;100093.97;;;30.10;100.00
31096;BME280;17749;51.962;8.560;2023-06-22T10:58:32;100094.09;;;30.17;100.00
31096;BME280;17749;51.962;8.560;2023-06-22T11:00:59;100085.78;;;30.25;100.00
31096;BME280;17749;51.962;8.560;2023-06-22T11:03:26;100080.16;;;30.03;100.00
31096;BME280;17749;51.962;8.560;2023-06-22T11:05:53;100090.78;;;30.06;100.00
31096;BME280;17749;51.962;8.560;2023-06-22T11:08:20;100084.69;;;29.96;100.00
31096;BME280;17749;51.962;8.560;2023-06-22T11:10:47;100079.59;;;30.08;100.00
31096;BME280;17749;51.962;8.560;2023-06-22T11:13:14;100081.84;;;30.04;100.00
31096;BME280;17749;51.962;8.560;2023-06-22T11:15:41;100083.19;;;30.08;100.00
31096;BME280;17749;51.962;8.560;2023-06-22T11:18:08;100081.09;;;29.96;100.00
31096;BME280;17749;51.962;8.560;2023-06-22T11:20:35;100068.31;;;29.88;100.00
31096;BME280;17749;51.962;8.560;2023-06-22T11:23:05;100056.59;;;29.79;100.00
31096;BME280;17749;51.962;8.560;2023-06-22T11:25:33;100053.63;;;29.81;100.00
31096;BME280;17749;51.962;8.560;2023-06-22T11:28:05;100049.75;;;29.75;100.00
31096;BME280;17749;51.962;8.560;2023-06-22T11:30:32;100050.16;;;29.49;100.00
31096;BME280;17749;51.962;8.560;2023-06-22T11:32:59;100062.00;;;29.26;100.00
31096;BME280;17749;51.962;8.560;2023-06-22T11:35:26;100057.38;;;29.27;100.00
31096;BME280;17749;51.962;8.560;2023-06-22T11:37:53;100050.16;;;29.11;100.00
31096;BME280;17749;51.962;8.560;2023-06-22T11:40:20;100049.28;;;29.02;100.00
31096;BME280;17749;51.962;8.560;2023-06-22T11:42:47;100045.91;;;29.23;100.00
31096;BME280;17749;51.962;8.560;2023-06-22T11:45:14;100039.25;;;29.41;100.00
31096;BME280;17749;51.962;8.560;2023-06-22T11:47:41;100029.63;;;29.45;100.00
31096;BME280;17749;51.962;8.560;2023-06-22T11:50:08;100015.19;;;29.28;100.00
31096;BME280;17749;51.962;8.560;2023-06-22T11:52:35;100018.03;;;29.20;100.00
31096;BME280;17749;51.962;8.560;2023-06-22T11:55:03;100018.28;;;28.79;100.00
31096;BME280;17749;51.962;8.560;2023-06-22T11:57:34;100013.47;;;28.58;100.00
31096;BME280;17749;51.962;8.560;2023-06-22T12:00:01;99998.13;;;28.49;100.00
31096;BME280;17749;51.962;8.560;2023-06-22T12:02:32;100004.94;;;28.53;100.00
31096;BME280;17749;51.962;8.560;2023-06-22T12:04:59;100001.06;;;28.39;100.00
31096;BME280;17749;51.962;8.560;2023-06-22T12:07:26;100007.56;;;28.38;100.00
31096;BME280;17749;51.962;8.560;2023-06-22T12:09:53;100006.34;;;28.40;100.00
31096;BME280;17749;51.962;8.560;2023-06-22T12:12:20;100009.75;;;28.42;100.00
31096;BME280;17749;51.962;8.560;2023-06-22T12:14:47;100005.72;;;28.30;100.00
31096;BME280;17749;51.962;8.560;2023-06-22T12:17:14;100014.03;;;28.14;100.00
31096;BME280;17749;51.962;8.560;2023-06-22T12:19:41;100014.75;;;28.00;100.00
31096;BME280;17749;51.962;8.560;2023-06-22T12:22:08;100022.28;;;27.97;100.00
31096;BME280;17749;51.962;8.560;2023-06-22T12:24:35;100031.16;;;28.00;100.00
31096;BME280;17749;51.962;8.560;2023-06-22T12:27:02;100039.38;;;28.00;100.00
31096;BME280;17749;51.962;8.560;2023-06-22T12:29:29;100041.47;;;27.89;100.00
31096;BME280;17749;51.962;8.560;2023-06-22T12:31:56;100037.91;;;27.81;100.00
31096;BME280;17749;51.962;8.560;2023-06-22T12:34:23;100047.44;;;27.76;100.00
31096;BME280;17749;51.962;8.560;2023-06-22T12:36:50;100049.84;;;27.71;100.00
31096;BME280;17749;51.962;8.560;2023-06-22T12:39:17;100046.97;;;27.65;100.00
31096;BME280;17749;51.962;8.560;2023-06-22T12:41:44;100051.25;;;27.59;100.00
31096;BME280;17749;51.962;8.560;2023-06-22T12:44:11;100053.81;;;27.52;100.00
31096;BME280;17749;51.962;8.560;2023-06-22T12:46:38;100051.94;;;27.37;100.00
31096;BME280;17749;51.962;8.560;2023-06-22T12:49:05;100051.09;;;27.28;100.00
31096;BME280;17749;51.962;8.560;2023-06-22T12:51:32;100044.22;;;27.16;100.00
31096;BME280;17749;51.962;8.560;2023-06-22T12:54:00;100036.72;;;27.01;100.00
31096;BME280;17749;51.962;8.560;2023-06-22T12:56:27;100025.25;;;26.89;100.00
31096;BME280;17749;51.962;8.560;2023-06-22T12:58:54;100017.88;;;26.74;100.00
31096;BME280;17749;51.962;8.560;2023-06-22T13:01:21;100004.56;;;26.62;100.00
31096;BME280;17749;51.962;8.560;2023-06-22T13:03:49;99993.78;;;26.53;100.00
31096;BME280;17749;51.962;8.560;2023-06-22T13:06:17;99986.34;;;26.29;100.00
31096;BME280;17749;51.962;8.560;2023-06-22T13:08:44;99978.25;;;26.02;100.00
31096;BME280;17749;51.962;8.560;2023-06-22T13:11:31;99971.16;;;25.84;100.00
31096;BME280;17749;51.962;8.560;2023-06-22T13:13:58;99974.06;;;25.56;100.00
31096;BME280;17749;51.962;8.560;2023-06-22T13:16:25;99978.38;;;25.41;100.00
31096;BME280;17749;51.962;8.560;2023-06-22T13:18:52;99995.34;;;25.26;100.00
31096;BME280;17749;51.962;8.560;2023-06-22T13:21:19;99991.06;;;25.06;100.00
31096;BME280;17749;51.962;8.560;2023-06-22T13:23:46;100001.81;;;24.89;100.00
31096;BME280;17749;51.962;8.560;2023-06-22T13:26:13;99997.91;;;24.74;100.00
31096;BME280;17749;51.962;8.560;2023-06-22T13:28:39;100015.03;;;24.66;100.00
31096;BME280;17749;51.962;8.560;2023-06-22T13:31:06;100021.94;;;24.61;100.00
31096;BME280;17749;51.962;8.560;2023-06-22T13:33:34;100011.13;;;24.51;100.00
31096;BME280;17749;51.962;8.560;2023-06-22T13:36:01;100012.31;;;24.39;100.00
31096;BME280;17749;51.962;8.560;2023-06-22T13:38:30;100019.66;;;24.28;100.00
31096;BME280;17749;51.962;8.560;2023-06-22T13:40:58;100037.06;;;24.18;100.00
31096;BME280;17749;51.962;8.560;2023-06-22T13:43:26;100036.53;;;24.04;100.00
31096;BME280;17749;51.962;8.560;2023-06-22T13:45:54;100050.34;;;23.93;100.00
31096;BME280;17749;51.962;8.560;2023-06-22T13:48:21;100043.78;;;23.86;100.00
31096;BME280;17749;51.962;8.560;2023-06-22T13:50:49;100038.66;;;23.73;100.00
31096;BME280;17749;51.962;8.560;2023-06-22T13:53:16;100045.28;;;23.61;100.00
31096;BME280;17749;51.962;8.560;2023-06-22T13:55:43;100031.28;;;23.46;100.00
31096;BME280;17749;51.962;8.560;2023-06-22T13:58:10;100013.88;;;23.19;100.00
31096;BME280;17749;51.962;8.560;2023-06-22T14:00:37;100007.88;;;22.96;100.00
31096;BME280;17749;51.962;8.560;2023-06-22T14:03:04;100026.41;;;22.82;100.00
31096;BME280;17749;51.962;8.560;2023-06-22T14:05:31;100026.28;;;22.73;100.00
31096;BME280;17749;51.962;8.560;2023-06-22T14:07:58;99990.28;;;22.71;100.00
31096;BME280;17749;51.962;8.560;2023-06-22T14:10:25;99951.16;;;22.64;100.00
31096;BME280;17749;51.962;8.560;2023-06-22T14:12:53;99899.31;;;22.38;100.00
31096;BME280;17749;51.962;8.560;2023-06-22T14:15:22;99889.03;;;22.22;100.00
31096;BME280;17749;51.962;8.560;2023-06-22T14:17:49;99891.25;;;22.07;100.00
31096;BME280;17749;51.962;8.560;2023-06-22T14:20:16;99901.22;;;21.97;100.00
31096;BME280;17749;51.962;8.560;2023-06-22T14:22:42;99904.94;;;21.96;100.00
31096;BME280;17749;51.962;8.560;2023-06-22T14:25:09;99895.22;;;21.94;100.00
31096;BME280;17749;51.962;8.560;2023-06-22T14:27:36;99887.38;;;21.91;100.00
31096;BME280;17749;51.962;8.560;2023-06-22T14:30:04;99857.13;;;21.85;100.00
31096;BME280;17749;51.962;8.560;2023-06-22T14:32:51;99834.72;;;21.83;100.00
31096;BME280;17749;51.962;8.560;2023-06-22T14:35:18;99821.56;;;21.79;100.00
31096;BME280;17749;51.962;8.560;2023-06-22T14:37:44;99816.28;;;21.67;100.00
31096;BME280;17749;51.962;8.560;2023-06-22T14:40:12;99818.69;;;21.61;100.00
31096;BME280;17749;51.962;8.560;2023-06-22T14:42:39;99817.78;;;21.51;100.00
31096;BME280;17749;51.962;8.560;2023-06-22T14:45:06;99812.09;;;21.44;100.00
31096;BME280;17749;51.962;8.560;2023-06-22T14:47:33;99806.81;;;21.42;100.00
31096;BME280;17749;51.962;8.560;2023-06-22T14:50:00;99790.84;;;21.39;100.00
31096;BME280;17749;51.962;8.560;2023-06-22T14:52:27;99807.34;;;21.36;100.00
31096;BME280;17749;51.962;8.560;2023-06-22T14:54:55;99813.16;;;21.32;100.00
31096;BME280;17749;51.962;8.560;2023-06-22T14:57:22;99810.84;;;21.27;100.00
31096;BME280;17749;51.962;8.560;2023-06-22T14:59:49;99809.72;;;21.30;100.00
31096;BME280;17749;51.962;8.560;2023-06-22T15:02:17;99817.28;;;21.26;100.00
31096;BME280;17749;51.962;8.560;2023-06-22T15:04:44;99816.88;;;21.31;100.00
31096;BME280;17749;51.962;8.560;2023-06-22T15:07:11;99820.03;;;21.36;100.00
31096;BME280;17749;51.962;8.560;2023-06-22T15:09:38;99826.03;;;21.39;100.00
31096;BME280;17749;51.962;8.560;2023-06-22T15:12:08;99826.38;;;21.46;100.00
31096;BME280;17749;51.962;8.560;2023-06-22T15:14:42;99813.09;;;21.53;100.00
31096;BME280;17749;51.962;8.560;2023-06-22T15:17:09;99797.28;;;21.58;100.00
31096;BME280;17749;51.962;8.560;2023-06-22T15:19:36;99785.88;;;21.64;100.00
31096;BME280;17749;51.962;8.560;2023-06-22T15:22:07;99791.91;;;21.77;100.00
31096;BME280;17749;51.962;8.560;2023-06-22T15:24:34;99785.63;;;21.86;100.00
31096;BME280;17749;51.962;8.560;2023-06-22T15:27:01;99801.88;;;22.06;100.00
31096;BME280;17749;51.962;8.560;2023-06-22T15:29:28;99803.09;;;22.33;100.00
31096;BME280;17749;51.962;8.560;2023-06-22T15:32:00;99790.63;;;22.59;100.00
31096;BME280;17749;51.962;8.560;2023-06-22T15:34:28;99766.84;;;22.81;100.00
31096;BME280;17749;51.962;8.560;2023-06-22T15:36:55;99754.69;;;22.85;100.00
31096;BME280;17749;51.962;8.560;2023-06-22T15:39:22;99771.75;;;22.95;100.00
31096;BME280;17749;51.962;8.560;2023-06-22T15:41:54;99770.59;;;23.07;100.00
31096;BME280;17749;51.962;8.560;2023-06-22T15:44:21;99739.13;;;23.14;100.00
31096;BME280;17749;51.962;8.560;2023-06-22T15:46:49;99741.53;;;23.17;100.00
31096;BME280;17749;51.962;8.560;2023-06-22T15:49:16;99721.50;;;23.18;100.00
31096;BME280;17749;51.962;8.560;2023-06-22T15:51:44;99713.88;;;23.32;100.00
31096;BME280;17749;51.962;8.560;2023-06-22T15:54:11;99691.53;;;23.38;100.00
31096;BME280;17749;51.962;8.560;2023-06-22T15:56:38;99688.28;;;23.34;100.00
31096;BME280;17749;51.962;8.560;2023-06-22T15:59:06;99683.28;;;23.30;100.00
31096;BME280;17749;51.962;8.560;2023-06-22T16:01:33;99673.72;;;23.26;100.00
31096;BME280;17749;51.962;8.560;2023-06-22T16:04:00;99647.31;;;23.18;100.00
31096;BME280;17749;51.962;8.560;2023-06-22T16:06:27;99639.94;;;23.10;100.00
31096;BME280;17749;51.962;8.560;2023-06-22T16:08:54;99628.59;;;22.97;100.00
31096;BME280;17749;51.962;8.560;2023-06-22T16:11:21;99632.97;;;22.80;100.00
31096;BME280;17749;51.962;8.560;2023-06-22T16:13:48;99634.84;;;22.80;100.00
31096;BME280;17749;51.962;8.560;2023-06-22T16:16:15;99635.59;;;22.72;100.00
31096;BME280;17749;51.962;8.560;2023-06-22T16:18:42;99650.16;;;22.71;100.00
31096;BME280;17749;51.962;8.560;2023-06-22T16:21:09;99644.59;;;22.72;100.00
31096;BME280;17749;51.962;8.560;2023-06-22T16:23:36;99651.31;;;22.68;100.00
31096;BME280;17749;51.962;8.560;2023-06-22T16:26:04;99646.63;;;22.61;100.00
31096;BME280;17749;51.962;8.560;2023-06-22T16:28:30;99635.72;;;22.43;100.00
31096;BME280;17749;51.962;8.560;2023-06-22T16:30:57;99638.78;;;22.30;100.00
31096;BME280;17749;51.962;8.560;2023-06-22T16:33:24;99626.38;;;22.27;100.00
31096;BME280;17749;51.962;8.560;2023-06-22T16:35:52;99626.34;;;22.18;100.00
31096;BME280;17749;51.962;8.560;2023-06-22T16:38:19;99623.38;;;22.11;100.00
31096;BME280;17749;51.962;8.560;2023-06-22T16:40:46;99618.25;;;22.08;100.00
31096;BME280;17749;51.962;8.560;2023-06-22T16:43:13;99614.44;;;22.01;100.00
31096;BME280;17749;51.962;8.560;2023-06-22T16:45:40;99609.03;;;21.91;100.00
31096;BME280;17749;51.962;8.560;2023-06-22T16:48:07;99601.31;;;21.86;100.00
31096;BME280;17749;51.962;8.560;2023-06-22T16:50:35;99604.47;;;21.82;100.00
31096;BME280;17749;51.962;8.560;2023-06-22T16:53:02;99621.19;;;21.77;100.00
31096;BME280;17749;51.962;8.560;2023-06-22T16:55:29;99644.84;;;21.75;100.00
31096;BME280;17749;51.962;8.560;2023-06-22T16:57:57;99675.53;;;21.76;100.00
31096;BME280;17749;51.962;8.560;2023-06-22T17:00:24;99703.47;;;21.76;100.00
31096;BME280;17749;51.962;8.560;2023-06-22T17:02:52;99757.09;;;21.73;100.00
31096;BME280;17749;51.962;8.560;2023-06-22T17:05:20;99815.72;;;21.74;100.00
31096;BME280;17749;51.962;8.560;2023-06-22T17:08:02;99854.94;;;21.79;100.00
31096;BME280;17749;51.962;8.560;2023-06-22T17:10:32;99859.09;;;21.83;100.00
31096;BME280;17749;51.962;8.560;2023-06-22T17:13:02;99820.03;;;21.86;100.00
31096;BME280;17749;51.962;8.560;2023-06-22T17:15:29;99793.91;;;21.85;100.00
31096;BME280;17749;51.962;8.560;2023-06-22T17:17:58;99828.13;;;21.76;100.00
31096;BME280;17749;51.962;8.560;2023-06-22T17:20:28;99870.72;;;21.55;100.00
31096;BME280;17749;51.962;8.560;2023-06-22T17:22:55;99850.78;;;21.35;100.00
31096;BME280;17749;51.962;8.560;2023-06-22T17:25:23;99792.94;;;21.36;100.00
31096;BME280;17749;51.962;8.560;2023-06-22T17:27:52;99786.47;;;21.27;100.00
31096;BME280;17749;51.962;8.560;2023-06-22T17:30:24;99779.75;;;21.21;100.00
31096;BME280;17749;51.962;8.560;2023-06-22T17:32:51;99792.44;;;21.21;100.00
31096;BME280;17749;51.962;8.560;2023-06-22T17:35:18;99805.00;;;21.22;100.00
31096;BME280;17749;51.962;8.560;2023-06-22T17:37:51;99793.19;;;21.23;100.00
31096;BME280;17749;51.962;8.560;2023-06-22T17:40:20;99789.47;;;21.24;100.00
31096;BME280;17749;51.962;8.560;2023-06-22T17:42:47;99785.91;;;21.23;100.00
31096;BME280;17749;51.962;8.560;2023-06-22T17:45:14;99747.59;;;21.28;100.00
31096;BME280;17749;51.962;8.560;2023-06-22T17:47:42;99732.19;;;21.29;100.00
31096;BME280;17749;51.962;8.560;2023-06-22T17:50:09;99727.91;;;21.26;100.00